CSAV Lonquen — A8OT2 — position and weather

sailwx.info

Track history (hours):
 
Tides and Currents Weather Stations Pressure Air Temp Water Temp Dewpoint Dewpoint Depression Visibility Wind Speed Wind Dir Waves Ship Positions

CSAV Lonquen

Last reported at 2016-Dec-04 15:08 UTC. Time now 2016-Dec-04 18:22 UTC.
Position N 49°46' W 003°32'.

Length 261 m; draft 7.9 m.

Type: Ship (hazmat cat A). MMSI: 636091501.

Date/timePositionNaut miles runAvg speedWind from/ knotsBaromVisibWave heightAir tempDewpointWater temp
2016-Dec-04 15:08N 49°46' W 003°32'712.8
2016-Dec-04 14:33N 49°49' W 003°22'1312.9
2016-Dec-04 13:31N 49°56' W 003°04'1212.8
2016-Dec-04 12:33N 50°01' W 002°47'3113.4
2016-Dec-04 10:17N 50°09' W 002°01'912.5
2016-Dec-04 09:34N 50°12' W 001°47'1312.5
2016-Dec-04 08:34N 50°15' W 001°29'1212.2
2016-Dec-04 07:32N 50°18' W 001°10'2612.5
2016-Dec-04 05:26N 50°25' W 000°30'1213.0
2016-Dec-04 04:29N 50°29' W 000°11'1213.3
2016-Dec-04 03:33N 50°32' E 000°07'1313.1
2016-Dec-04 02:33N 50°36' E 000°27'2612.9
2016-Dec-04 00:33N 50°50' E 001°01'1212.5
2016-Dec-03 23:33N 50°58' E 001°16'1212.1
2016-Dec-03 22:33N 51°06' E 001°31'1313.4
2016-Dec-03 21:33N 51°15' E 001°46'1313.0
2016-Dec-03 20:33N 51°26' E 001°57'1313.3
2016-Dec-03 19:34N 51°36' E 002°11'1313.2
2016-Dec-03 18:33N 51°47' E 002°24'4312.8
2016-Dec-03 15:13N 52°20' E 003°08'912.7
2016-Dec-03 14:32N 52°27' E 003°16'1212.4
2016-Dec-03 13:33N 52°37' E 003°27'1312.8
2016-Dec-03 12:33N 52°47' E 003°41'1413.3
2016-Dec-03 11:31N 52°57' E 003°56'1513.1
2016-Dec-03 10:24N 53°06' E 004°15'1112.4
2016-Dec-03 09:32N 53°15' E 004°26'13211.9
2016-Dec-02 22:27N 53°51' E 007°59'1414.9
2016-Dec-02 21:32N 53°43' E 008°17'1110.8
2016-Dec-02 20:33N 53°36' E 008°31'0 0.0
2016-Dec-02 19:33N 53°36' E 008°31'0 0.0
2016-Dec-02 18:33N 53°36' E 008°31'0 0.0
2016-Dec-02 17:33N 53°36' E 008°31'0 0.0
2016-Dec-02 16:33N 53°36' E 008°31'0 0.0
2016-Dec-02 15:33N 53°36' E 008°31'0 0.0
2016-Dec-02 14:33N 53°36' E 008°31'0 0.0
2016-Dec-02 13:33N 53°36' E 008°31'0 0.0
2016-Dec-02 12:33N 53°36' E 008°31'0 0.0
2016-Dec-02 11:33N 53°36' E 008°31'0 0.0
2016-Dec-02 10:33N 53°36' E 008°31'0 0.0
2016-Dec-02 09:33N 53°36' E 008°31'0 0.0
2016-Dec-02 08:33N 53°36' E 008°31'0 0.0
2016-Dec-02 07:33N 53°36' E 008°31'0 0.1
2016-Dec-02 06:33N 53°36' E 008°31'9 8.9
2016-Dec-02 05:33N 53°42' E 008°19'1313.4
2016-Dec-02 04:33N 53°51' E 008°02'53 8.6
2016-Dec-01 22:25N 53°47' E 006°33'5714.7
2016-Dec-01 18:32N 53°28' E 005°01'4514.0
2016-Dec-01 15:19N 52°53' E 004°15'911.5
2016-Dec-01 14:33N 52°45' E 004°08'10 9.6
2016-Dec-01 13:33N 52°37' E 004°00'9 8.9
2016-Dec-01 12:33N 52°29' E 003°54'9 8.5
2016-Dec-01 11:33N 52°20' E 003°52'8 8.4
2016-Dec-01 10:33N 52°12' E 003°54'8 8.2
2016-Dec-01 09:33N 52°04' E 003°54'1110.6
2016-Dec-01 08:33N 51°58' E 004°09'1010.1
2016-Dec-01 07:34N 51°54' E 004°24'1 1.4
2016-Dec-01 06:32N 51°53' E 004°26'0 0.0
2016-Dec-01 05:32N 51°53' E 004°26'0 0.0
2016-Dec-01 04:32N 51°53' E 004°26'0 0.0
2016-Dec-01 03:32N 51°53' E 004°26'0 0.0
2016-Dec-01 02:32N 51°53' E 004°26'0 0.0
2016-Dec-01 01:32N 51°53' E 004°26'0 0.0
2016-Dec-01 00:32N 51°53' E 004°26'0 0.0
2016-Nov-30 23:31N 51°53' E 004°26'0 0.0
2016-Nov-30 22:32N 51°53' E 004°26'0 0.0
2016-Nov-30 21:32N 51°53' E 004°26'0 0.0
2016-Nov-30 20:32N 51°53' E 004°26'0 0.0
2016-Nov-30 19:32N 51°53' E 004°26'0 0.0
2016-Nov-30 18:31N 51°53' E 004°26'0 0.0
2016-Nov-30 17:32N 51°53' E 004°26'0 0.0
2016-Nov-30 16:32N 51°53' E 004°26'0 0.0
2016-Nov-30 15:32N 51°53' E 004°26'1 1.5
2016-Nov-30 14:33N 51°54' E 004°24'1010.5
2016-Nov-30 13:33N 51°58' E 004°08'1413.7
2016-Nov-30 12:33N 51°59' E 003°46'7 3.7
2016-Nov-30 10:33N 51°56' E 003°36'0 0.1
2016-Nov-30 09:33N 51°56' E 003°36'0 0.0
2016-Nov-30 08:33N 51°56' E 003°36'0 0.1
2016-Nov-30 07:31N 51°56' E 003°36'0 0.1
2016-Nov-30 06:33N 51°56' E 003°36'0 0.1
2016-Nov-30 05:33N 51°56' E 003°36'0 0.1
2016-Nov-30 04:32N 51°56' E 003°36'0 0.0
2016-Nov-30 03:33N 51°56' E 003°36'0 0.0
2016-Nov-30 02:33N 51°56' E 003°36'0 0.0
2016-Nov-30 01:33N 51°56' E 003°36'0 0.1
2016-Nov-30 00:33N 51°56' E 003°36'0 0.2
2016-Nov-29 23:33N 51°56' E 003°36'0 0.4
2016-Nov-29 22:33N 51°56' E 003°35'7 7.1
2016-Nov-29 21:32N 51°55' E 003°23'8 8.6
2016-Nov-29 20:33N 51°52' E 003°11'9 8.6
2016-Nov-29 19:33N 51°50' E 002°57'9 8.8
2016-Nov-29 18:33N 51°48' E 002°43'9 9.2
2016-Nov-29 17:33N 51°52' E 002°30'10 9.8
2016-Nov-29 16:33N 51°53' E 002°14'1010.4
2016-Nov-29 15:33N 51°50' E 001°58'9 9.0
2016-Nov-29 14:33N 51°50' E 001°43'8 7.9
2016-Nov-29 13:34N 51°55' E 001°34'10 9.6
2016-Nov-29 12:32N 51°57' E 001°18'0 0.0
2016-Nov-29 11:32N 51°57' E 001°18'0 0.0
2016-Nov-29 10:32N 51°57' E 001°18'0 0.0
2016-Nov-29 09:32N 51°57' E 001°18'0 0.0
2016-Nov-29 08:32N 51°57' E 001°18'0 0.0
2016-Nov-29 07:32N 51°57' E 001°18'0 0.0
2016-Nov-29 06:32N 51°57' E 001°18'0 0.0
2016-Nov-29 05:32N 51°57' E 001°18'0 0.0
2016-Nov-29 04:32N 51°57' E 001°18'0 0.0
2016-Nov-29 03:32N 51°57' E 001°18'0 0.0
2016-Nov-29 02:32N 51°57' E 001°18'0 0.0
2016-Nov-29 01:32N 51°57' E 001°18'0 0.0
2016-Nov-29 00:32N 51°57' E 001°18'0 0.0
2016-Nov-28 23:32N 51°57' E 001°18'0 0.0
2016-Nov-28 22:32N 51°57' E 001°18'0 0.0
2016-Nov-28 21:32N 51°57' E 001°18'0 0.0
2016-Nov-28 20:32N 51°57' E 001°18'0 0.0
2016-Nov-28 19:32N 51°57' E 001°18'0 0.0
2016-Nov-28 18:32N 51°57' E 001°18'0 0.0
2016-Nov-28 17:32N 51°57' E 001°18'0 0.0
2016-Nov-28 16:32N 51°57' E 001°18'0 0.0
2016-Nov-28 15:32N 51°57' E 001°18'0 0.0
2016-Nov-28 14:32N 51°57' E 001°18'0 0.0
2016-Nov-28 13:32N 51°57' E 001°18'0 0.3
2016-Nov-28 12:33N 51°57' E 001°18'10 9.5
2016-Nov-28 11:33N 51°55' E 001°33'8 8.1
2016-Nov-28 10:33N 51°51' E 001°45'8 7.9
2016-Nov-28 09:34N 51°44' E 001°49'1111.3
2016-Nov-28 08:34N 51°33' E 001°51'1211.8
2016-Nov-28 07:33N 51°23' E 002°01'1313.5
2016-Nov-28 06:33N 51°12' E 001°48'1313.0
2016-Nov-28 05:34N 51°02' E 001°34'1313.2
2016-Nov-28 04:33N 50°51' E 001°24'5213.1
2016-Nov-28 00:33N 50°23' E 000°13'1413.9
2016-Nov-27 23:33N 50°20' W 000°08'2713.7
2016-Nov-27 21:33N 50°13' W 000°49'1713.7
2016-Nov-27 20:20N 50°08' W 001°14'1113.7
2016-Nov-27 19:33N 50°05' W 001°30'1414.0
2016-Nov-27 18:34N 50°01' W 001°51'1414.2
2016-Nov-27 17:33N 49°57' W 002°12'1815.3
2016-Nov-27 16:22N 49°52' W 002°40'1315.6
2016-Nov-27 15:33N 49°48' W 002°58'1515.5
2016-Nov-27 14:34N 49°40' W 003°19'3415.3
2016-Nov-27 12:20N 49°24' W 004°05'1215.0
2016-Nov-27 11:33N 49°18' W 004°20'1515.1
2016-Nov-27 10:33N 49°10' W 004°40'2914.4
2016-Nov-27 08:33N 48°55' W 005°18'1413.1
2016-Nov-27 07:28N 48°48' W 005°36'1213.3
2016-Nov-27 06:33N 48°38' W 005°46'58416.2
2016-Nov-25 18:33N 39°21' W 009°49'1817.8
2016-Nov-25 17:33N 39°03' W 009°50'1717.3
2016-Nov-25 16:33N 38°46' W 009°50'1717.3
2016-Nov-25 15:34N 38°29' W 009°45'1817.5
2016-Nov-25 14:33N 38°12' W 009°41'3417.0
2016-Nov-25 12:33N 37°38' W 009°32'  
Track history (hours):
 
Tides and Currents Weather Stations Pressure Air Temp Water Temp Dewpoint Dewpoint Depression Visibility Wind Speed Wind Dir Waves Ship Positions

CSAV Lonquen

Last reported at 2016-Dec-04 15:08 UTC. Time now 2016-Dec-04 18:22 UTC.
Position N 49°46' W 003°32'.

Length 261 m; draft 7.9 m.

Type: Ship (hazmat cat A). MMSI: 636091501.

Date/timePositionNaut miles runAvg speedWind from/ knotsBaromVisibWave heightAir tempDewpointWater temp
2016-Dec-04 15:08N 49°46' W 003°32'712.8
2016-Dec-04 14:33N 49°49' W 003°22'1312.9
2016-Dec-04 13:31N 49°56' W 003°04'1212.8
2016-Dec-04 12:33N 50°01' W 002°47'3113.4
2016-Dec-04 10:17N 50°09' W 002°01'912.5
2016-Dec-04 09:34N 50°12' W 001°47'1312.5
2016-Dec-04 08:34N 50°15' W 001°29'1212.2
2016-Dec-04 07:32N 50°18' W 001°10'2612.5
2016-Dec-04 05:26N 50°25' W 000°30'1213.0
2016-Dec-04 04:29N 50°29' W 000°11'1213.3
2016-Dec-04 03:33N 50°32' E 000°07'1313.1
2016-Dec-04 02:33N 50°36' E 000°27'2612.9
2016-Dec-04 00:33N 50°50' E 001°01'1212.5
2016-Dec-03 23:33N 50°58' E 001°16'1212.1
2016-Dec-03 22:33N 51°06' E 001°31'1313.4
2016-Dec-03 21:33N 51°15' E 001°46'1313.0
2016-Dec-03 20:33N 51°26' E 001°57'1313.3
2016-Dec-03 19:34N 51°36' E 002°11'1313.2
2016-Dec-03 18:33N 51°47' E 002°24'4312.8
2016-Dec-03 15:13N 52°20' E 003°08'912.7
2016-Dec-03 14:32N 52°27' E 003°16'1212.4
2016-Dec-03 13:33N 52°37' E 003°27'1312.8
2016-Dec-03 12:33N 52°47' E 003°41'1413.3
2016-Dec-03 11:31N 52°57' E 003°56'1513.1
2016-Dec-03 10:24N 53°06' E 004°15'1112.4
2016-Dec-03 09:32N 53°15' E 004°26'13211.9
2016-Dec-02 22:27N 53°51' E 007°59'1414.9
2016-Dec-02 21:32N 53°43' E 008°17'1110.8
2016-Dec-02 20:33N 53°36' E 008°31'0 0.0
2016-Dec-02 19:33N 53°36' E 008°31'0 0.0
2016-Dec-02 18:33N 53°36' E 008°31'0 0.0
2016-Dec-02 17:33N 53°36' E 008°31'0 0.0
2016-Dec-02 16:33N 53°36' E 008°31'0 0.0
2016-Dec-02 15:33N 53°36' E 008°31'0 0.0
2016-Dec-02 14:33N 53°36' E 008°31'0 0.0
2016-Dec-02 13:33N 53°36' E 008°31'0 0.0
2016-Dec-02 12:33N 53°36' E 008°31'0 0.0
2016-Dec-02 11:33N 53°36' E 008°31'0 0.0
2016-Dec-02 10:33N 53°36' E 008°31'0 0.0
2016-Dec-02 09:33N 53°36' E 008°31'0 0.0
2016-Dec-02 08:33N 53°36' E 008°31'0 0.0
2016-Dec-02 07:33N 53°36' E 008°31'0 0.1
2016-Dec-02 06:33N 53°36' E 008°31'9 8.9
2016-Dec-02 05:33N 53°42' E 008°19'1313.4
2016-Dec-02 04:33N 53°51' E 008°02'53 8.6
2016-Dec-01 22:25N 53°47' E 006°33'5714.7
2016-Dec-01 18:32N 53°28' E 005°01'4514.0
2016-Dec-01 15:19N 52°53' E 004°15'911.5
2016-Dec-01 14:33N 52°45' E 004°08'10 9.6
2016-Dec-01 13:33N 52°37' E 004°00'9 8.9
2016-Dec-01 12:33N 52°29' E 003°54'9 8.5
2016-Dec-01 11:33N 52°20' E 003°52'8 8.4
2016-Dec-01 10:33N 52°12' E 003°54'8 8.2
2016-Dec-01 09:33N 52°04' E 003°54'1110.6
2016-Dec-01 08:33N 51°58' E 004°09'1010.1
2016-Dec-01 07:34N 51°54' E 004°24'1 1.4
2016-Dec-01 06:32N 51°53' E 004°26'0 0.0
2016-Dec-01 05:32N 51°53' E 004°26'0 0.0
2016-Dec-01 04:32N 51°53' E 004°26'0 0.0
2016-Dec-01 03:32N 51°53' E 004°26'0 0.0
2016-Dec-01 02:32N 51°53' E 004°26'0 0.0
2016-Dec-01 01:32N 51°53' E 004°26'0 0.0
2016-Dec-01 00:32N 51°53' E 004°26'0 0.0
2016-Nov-30 23:31N 51°53' E 004°26'0 0.0
2016-Nov-30 22:32N 51°53' E 004°26'0 0.0
2016-Nov-30 21:32N 51°53' E 004°26'0 0.0
2016-Nov-30 20:32N 51°53' E 004°26'0 0.0
2016-Nov-30 19:32N 51°53' E 004°26'0 0.0
2016-Nov-30 18:31N 51°53' E 004°26'0 0.0
2016-Nov-30 17:32N 51°53' E 004°26'0 0.0
2016-Nov-30 16:32N 51°53' E 004°26'0 0.0
2016-Nov-30 15:32N 51°53' E 004°26'1 1.5
2016-Nov-30 14:33N 51°54' E 004°24'1010.5
2016-Nov-30 13:33N 51°58' E 004°08'1413.7
2016-Nov-30 12:33N 51°59' E 003°46'7 3.7
2016-Nov-30 10:33N 51°56' E 003°36'0 0.1
2016-Nov-30 09:33N 51°56' E 003°36'0 0.0
2016-Nov-30 08:33N 51°56' E 003°36'0 0.1
2016-Nov-30 07:31N 51°56' E 003°36'0 0.1
2016-Nov-30 06:33N 51°56' E 003°36'0 0.1
2016-Nov-30 05:33N 51°56' E 003°36'0 0.1
2016-Nov-30 04:32N 51°56' E 003°36'0 0.0
2016-Nov-30 03:33N 51°56' E 003°36'0 0.0
2016-Nov-30 02:33N 51°56' E 003°36'0 0.0
2016-Nov-30 01:33N 51°56' E 003°36'0 0.1
2016-Nov-30 00:33N 51°56' E 003°36'0 0.2
2016-Nov-29 23:33N 51°56' E 003°36'0 0.4
2016-Nov-29 22:33N 51°56' E 003°35'7 7.1
2016-Nov-29 21:32N 51°55' E 003°23'8 8.6
2016-Nov-29 20:33N 51°52' E 003°11'9 8.6
2016-Nov-29 19:33N 51°50' E 002°57'9 8.8
2016-Nov-29 18:33N 51°48' E 002°43'9 9.2
2016-Nov-29 17:33N 51°52' E 002°30'10 9.8
2016-Nov-29 16:33N 51°53' E 002°14'1010.4
2016-Nov-29 15:33N 51°50' E 001°58'9 9.0
2016-Nov-29 14:33N 51°50' E 001°43'8 7.9
2016-Nov-29 13:34N 51°55' E 001°34'10 9.6
2016-Nov-29 12:32N 51°57' E 001°18'0 0.0
2016-Nov-29 11:32N 51°57' E 001°18'0 0.0
2016-Nov-29 10:32N 51°57' E 001°18'0 0.0
2016-Nov-29 09:32N 51°57' E 001°18'0 0.0
2016-Nov-29 08:32N 51°57' E 001°18'0 0.0
2016-Nov-29 07:32N 51°57' E 001°18'0 0.0
2016-Nov-29 06:32N 51°57' E 001°18'0 0.0
2016-Nov-29 05:32N 51°57' E 001°18'0 0.0
2016-Nov-29 04:32N 51°57' E 001°18'0 0.0
2016-Nov-29 03:32N 51°57' E 001°18'0 0.0
2016-Nov-29 02:32N 51°57' E 001°18'0 0.0
2016-Nov-29 01:32N 51°57' E 001°18'0 0.0
2016-Nov-29 00:32N 51°57' E 001°18'0 0.0
2016-Nov-28 23:32N 51°57' E 001°18'0 0.0
2016-Nov-28 22:32N 51°57' E 001°18'0 0.0
2016-Nov-28 21:32N 51°57' E 001°18'0 0.0
2016-Nov-28 20:32N 51°57' E 001°18'0 0.0
2016-Nov-28 19:32N 51°57' E 001°18'0 0.0
2016-Nov-28 18:32N 51°57' E 001°18'0 0.0
2016-Nov-28 17:32N 51°57' E 001°18'0 0.0
2016-Nov-28 16:32N 51°57' E 001°18'0 0.0
2016-Nov-28 15:32N 51°57' E 001°18'0 0.0
2016-Nov-28 14:32N 51°57' E 001°18'0 0.0
2016-Nov-28 13:32N 51°57' E 001°18'0 0.3
2016-Nov-28 12:33N 51°57' E 001°18'10 9.5
2016-Nov-28 11:33N 51°55' E 001°33'8 8.1
2016-Nov-28 10:33N 51°51' E 001°45'8 7.9
2016-Nov-28 09:34N 51°44' E 001°49'1111.3
2016-Nov-28 08:34N 51°33' E 001°51'1211.8
2016-Nov-28 07:33N 51°23' E 002°01'1313.5
2016-Nov-28 06:33N 51°12' E 001°48'1313.0
2016-Nov-28 05:34N 51°02' E 001°34'1313.2
2016-Nov-28 04:33N 50°51' E 001°24'5213.1
2016-Nov-28 00:33N 50°23' E 000°13'1413.9
2016-Nov-27 23:33N 50°20' W 000°08'2713.7
2016-Nov-27 21:33N 50°13' W 000°49'1713.7
2016-Nov-27 20:20N 50°08' W 001°14'1113.7
2016-Nov-27 19:33N 50°05' W 001°30'1414.0
2016-Nov-27 18:34N 50°01' W 001°51'1414.2
2016-Nov-27 17:33N 49°57' W 002°12'1815.3
2016-Nov-27 16:22N 49°52' W 002°40'1315.6
2016-Nov-27 15:33N 49°48' W 002°58'1515.5
2016-Nov-27 14:34N 49°40' W 003°19'3415.3
2016-Nov-27 12:20N 49°24' W 004°05'1215.0
2016-Nov-27 11:33N 49°18' W 004°20'1515.1
2016-Nov-27 10:33N 49°10' W 004°40'2914.4
2016-Nov-27 08:33N 48°55' W 005°18'1413.1
2016-Nov-27 07:28N 48°48' W 005°36'1213.3
2016-Nov-27 06:33N 48°38' W 005°46'58416.2
2016-Nov-25 18:33N 39°21' W 009°49'1817.8
2016-Nov-25 17:33N 39°03' W 009°50'1717.3
2016-Nov-25 16:33N 38°46' W 009°50'1717.3
2016-Nov-25 15:34N 38°29' W 009°45'1817.5
2016-Nov-25 14:33N 38°12' W 009°41'3417.0
2016-Nov-25 12:33N 37°38' W 009°32'  

Dump ship's entire track history